Time;durP1;ratioP1;P1;durP2;ratioP2;P2;SDS_P1;SDS_P2;PMS_P1;PMS_P2;Temp;Humidity;BMP_temperature;BMP_pressure;BME280_temperature;BME280_humidity;BME280_pressure;Samples;Min_cycle;Max_cycle;Signal;HPM_P1;HPM_P2
2023/04/06 00:00:59;;;;;;;2.03;1.80;;;6.20;99.90;;;;;;5033095;28;20052;-49
2023/04/06 00:03:25;;;;;;;2.53;2.17;;;;;;;;;;5032693;28;20116;-50
2023/04/06 00:05:51;;;;;;;2.38;1.77;;;;;;;;;;5031207;28;20117;-49
2023/04/06 00:08:17;;;;;;;3.58;1.60;;;;;;;;;;5032843;28;20033;-48
2023/04/06 00:10:44;;;;;;;2.83;1.80;;;;;;;;;;5047992;28;20389;-48
2023/04/06 00:13:10;;;;;;;3.33;2.17;;;;;;;;;;5033331;28;20034;-49
2023/04/06 00:15:36;;;;;;;1.75;1.65;;;;;;;;;;5032995;28;20034;-50
2023/04/06 00:18:03;;;;;;;2.88;1.85;;;;;;;;;;5032908;28;20068;-51
2023/04/06 00:20:29;;;;;;;4.10;1.98;;;;;;;;;;5032986;28;20029;-49
2023/04/06 00:22:55;;;;;;;3.03;1.83;;;;;;;;;;5033025;28;20026;-49
2023/04/06 00:25:21;;;;;;;1.73;1.63;;;;;;;;;;5047416;28;20132;-48
2023/04/06 00:27:47;;;;;;;6.20;2.45;;;;;;;;;;5030885;28;20046;-49
2023/04/06 00:30:13;;;;;;;2.90;2.20;;;;;;;;;;5032880;28;20032;-50
2023/04/06 00:32:40;;;;;;;2.03;1.88;;;;;;;;;;5014724;28;20044;-51
2023/04/06 00:35:06;;;;;;;2.58;1.60;;;;;;;;;;5032934;28;20040;-49
2023/04/06 00:37:32;;;;;;;2.45;1.83;;;;;;;;;;5033301;28;20099;-51
2023/04/06 00:39:59;;;;;;;2.97;1.60;;;;;;;;;;5047579;28;20113;-48
2023/04/06 00:42:25;;;;;;;2.92;2.58;;;;;;;;;;5032792;28;20060;-48
2023/04/06 00:44:54;;;;;;;2.88;1.92;;;;;;;;;;5032774;28;20029;-48
2023/04/06 00:47:20;;;;;;;2.55;2.00;;;;;;;;;;5047468;28;20045;-51
2023/04/06 00:49:46;;;;;;;2.08;1.67;;;;;;;;;;5047696;28;20116;-50
2023/04/06 00:52:13;;;;;;;2.25;1.52;;;;;;;;;;5030950;28;20041;-50
2023/04/06 00:54:39;;;;;;;2.45;1.85;;;;;;;;;;5032569;28;20108;-49
2023/04/06 00:57:05;;;;;;;2.17;1.80;;;;;;;;;;5030894;28;20040;-51
2023/04/06 00:59:31;;;;;;;1.98;1.83;;;;;;;;;;5032808;28;20557;-48
2023/04/06 01:01:58;;;;;;;3.13;1.95;;;;;;;;;;5047385;28;20049;-48
2023/04/06 01:04:24;;;;;;;1.90;1.73;;;;;;;;;;5032498;28;20025;-50
2023/04/06 01:06:50;;;;;;;2.78;1.90;;;;;;;;;;5032454;28;20428;-48
2023/04/06 01:09:20;;;;;;;2.05;1.88;;;;;;;;;;5032882;28;20484;-50
2023/04/06 01:11:46;;;;;;;2.30;2.03;;;;;;;;;;5032603;28;20053;-49
2023/04/06 01:14:12;;;;;;;2.25;1.70;;;;;;;;;;5034932;28;20064;-49
2023/04/06 01:16:38;;;;;;;1.67;1.58;;;;;;;;;;5001282;28;20084;-48
2023/04/06 01:19:13;;;;;;;3.38;1.92;;;6.10;99.90;;;;;;5036477;28;20033;-48
2023/04/06 01:21:40;;;;;;;1.95;1.65;;;6.10;99.90;;;;;;5038615;28;20037;-50
2023/04/06 01:24:07;;;;;;;1.35;1.25;;;6.10;99.90;;;;;;5053352;28;20053;-50
2023/04/06 01:26:33;;;;;;;3.50;1.95;;;6.00;99.90;;;;;;5038736;28;20021;-50
2023/04/06 01:29:00;;;;;;;2.25;1.90;;;;;;;;;;5053529;28;20045;-48
2023/04/06 01:31:27;;;;;;;1.63;1.52;;;;;;;;;;5038147;28;20026;-53
2023/04/06 01:33:53;;;;;;;1.65;1.48;;;;;;;;;;5037994;28;20021;-51
2023/04/06 01:36:19;;;;;;;6.93;2.05;;;;;;;;;;5038549;28;20485;-49
2023/04/06 01:38:46;;;;;;;2.28;1.67;;;;;;;;;;5035236;28;20033;-49
2023/04/06 01:41:12;;;;;;;4.05;1.85;;;;;;;;;;5035999;28;20029;-48
2023/04/06 01:43:38;;;;;;;3.95;1.70;;;;;;;;;;5036168;28;20100;-50
2023/04/06 01:46:04;;;;;;;2.78;1.70;;;;;;;;;;5035342;28;20079;-50
2023/04/06 01:48:31;;;;;;;4.70;2.20;;;;;;;;;;5035763;28;20037;-51
2023/04/06 01:50:56;;;;;;;2.35;2.08;;;5.80;99.90;;;;;;5033683;28;20128;-51
2023/04/06 01:53:22;;;;;;;1.80;1.33;;;5.80;99.90;;;;;;5016945;28;20125;-48
2023/04/06 01:55:48;;;;;;;1.90;1.67;;;5.80;99.90;;;;;;5033367;28;20038;-49
2023/04/06 01:58:14;;;;;;;3.20;1.65;;;5.80;99.90;;;;;;5035404;28;20536;-48
2023/04/06 02:00:40;;;;;;;3.08;2.17;;;5.80;99.90;;;;;;5035589;28;20028;-50
2023/04/06 02:03:06;;;;;;;2.05;1.20;;;5.80;99.90;;;;;;5033791;28;20041;-51
2023/04/06 02:05:37;;;;;;;2.50;1.73;;;5.80;99.90;;;;;;5035386;28;20030;-49
2023/04/06 02:08:05;;;;;;;3.37;2.03;;;5.80;99.90;;;;;;5035297;28;20046;-48
2023/04/06 02:10:31;;;;;;;3.72;1.92;;;5.70;99.90;;;;;;5035101;28;20449;-48
2023/04/06 02:12:58;;;;;;;1.73;1.48;;;5.70;99.90;;;;;;5035167;28;20040;-50
2023/04/06 02:15:24;;;;;;;2.20;1.90;;;5.80;99.90;;;;;;5035575;28;20032;-51
2023/04/06 02:17:50;;;;;;;2.03;1.85;;;5.80;99.90;;;;;;5032956;28;20034;-50
2023/04/06 02:20:16;;;;;;;3.35;2.05;;;5.80;99.90;;;;;;5033129;28;20042;-50
2023/04/06 02:22:42;;;;;;;2.35;1.75;;;5.80;99.90;;;;;;5035092;28;20033;-48
2023/04/06 02:25:08;;;;;;;4.18;1.88;;;5.80;99.90;;;;;;5033955;28;20045;-49
2023/04/06 02:27:34;;;;;;;1.80;1.58;;;5.70;99.90;;;;;;5034926;28;20493;-48
2023/04/06 02:30:00;;;;;;;2.78;1.80;;;5.70;99.90;;;;;;5034632;28;20066;-50
2023/04/06 02:32:25;;;;;;;3.35;2.28;;;5.70;99.90;;;;;;5049516;28;20034;-49
2023/04/06 02:34:51;;;;;;;2.40;1.27;;;5.70;99.90;;;;;;5034665;28;20091;-48
2023/04/06 02:37:17;;;;;;;1.98;1.55;;;5.70;99.90;;;;;;5034549;28;20065;-49
2023/04/06 02:39:43;;;;;;;1.88;1.73;;;5.70;99.90;;;;;;5034862;28;20060;-50
2023/04/06 02:42:09;;;;;;;2.33;1.88;;;5.70;99.90;;;;;;5017158;28;20113;-47
2023/04/06 02:44:35;;;;;;;1.73;1.20;;;5.70;99.90;;;;;;5014721;28;20076;-49
2023/04/06 02:47:00;;;;;;;2.38;2.17;;;5.60;99.90;;;;;;5013480;28;20042;-50
2023/04/06 02:49:26;;;;;;;2.45;1.45;;;5.70;99.90;;;;;;5014836;28;20033;-49
2023/04/06 02:51:52;;;;;;;3.88;2.35;;;5.60;99.90;;;;;;5023405;28;20432;-48
2023/04/06 02:54:17;;;;;;;3.15;1.92;;;5.70;99.90;;;;;;5034447;28;20029;-47
2023/04/06 02:56:44;;;;;;;1.95;1.58;;;;;;;;;;5034294;28;20032;-48
2023/04/06 02:59:10;;;;;;;2.15;1.67;;;;;;;;;;5030802;28;20106;-51
2023/04/06 03:01:36;;;;;;;2.88;2.65;;;;;;;;;;5014461;28;20037;-52
2023/04/06 03:04:03;;;;;;;1.42;1.30;;;;;;;;;;5014271;28;20030;-48
2023/04/06 03:06:30;;;;;;;3.65;1.88;;;;;;;;;;5014214;28;20071;-49
2023/04/06 03:08:56;;;;;;;2.60;2.40;;;;;;;;;;5013955;28;20042;-51
2023/04/06 03:11:22;;;;;;;2.28;1.85;;;;;;;;;;5014218;28;20036;-50
2023/04/06 03:13:48;;;;;;;2.65;1.80;;;;;;;;;;5014004;28;20034;-51
2023/04/06 03:16:14;;;;;;;2.58;2.08;;;;;;;;;;5022770;28;20420;-50
2023/04/06 03:18:40;;;;;;;3.17;2.22;;;;;;;;;;5020805;28;20033;-50
2023/04/06 03:21:06;;;;;;;2.72;1.58;;;;;;;;;;5033893;28;20030;-52
2023/04/06 03:23:32;;;;;;;3.88;2.22;;;;;;;;;;5033192;28;20061;-52
2023/04/06 03:25:59;;;;;;;2.95;1.88;;;;;;;;;;5033767;28;20033;-49
2023/04/06 03:28:25;;;;;;;2.60;1.77;;;;;;;;;;5048129;28;20102;-51
2023/04/06 03:30:51;;;;;;;2.00;1.58;;;;;;;;;;5031713;28;20057;-51
2023/04/06 03:33:17;;;;;;;3.80;2.53;;;;;;;;;;5033440;28;20080;-50
2023/04/06 03:35:43;;;;;;;2.88;1.95;;;5.30;99.90;;;;;;5031699;28;20050;-50
2023/04/06 03:38:09;;;;;;;2.55;1.60;;;5.30;99.90;;;;;;5033729;28;20099;-52
2023/04/06 03:40:34;;;;;;;3.67;2.00;;;5.30;99.90;;;;;;5031408;28;20045;-51
2023/04/06 03:43:00;;;;;;;6.65;2.13;;;5.20;99.90;;;;;;5033460;28;20029;-50
2023/04/06 03:45:26;;;;;;;2.10;1.73;;;5.30;99.90;;;;;;5048289;28;20033;-48
2023/04/06 03:47:52;;;;;;;1.98;1.88;;;5.30;99.90;;;;;;5033178;28;20033;-48
2023/04/06 03:50:17;;;;;;;5.10;2.05;;;5.20;99.90;;;;;;5048070;28;20041;-49
2023/04/06 03:52:43;;;;;;;1.60;1.42;;;5.20;99.90;;;;;;5014881;28;20465;-49
2023/04/06 03:55:09;;;;;;;1.75;1.65;;;5.20;99.90;;;;;;5011337;28;20030;-49
2023/04/06 03:57:35;;;;;;;3.17;2.08;;;5.30;99.90;;;;;;4994734;28;20121;-49
2023/04/06 04:00:01;;;;;;;3.17;1.42;;;5.30;99.90;;;;;;5011344;28;20128;-50
2023/04/06 04:02:26;;;;;;;2.53;1.95;;;5.30;99.90;;;;;;4994829;28;20088;-50
2023/04/06 04:04:52;;;;;;;1.73;1.60;;;5.40;99.90;;;;;;5010449;28;20569;-49
2023/04/06 04:07:18;;;;;;;3.60;1.80;;;5.50;99.90;;;;;;5011094;28;20034;-50
2023/04/06 04:09:43;;;;;;;2.72;2.08;;;5.50;99.90;;;;;;5011274;28;20548;-49
2023/04/06 04:12:09;;;;;;;2.70;1.50;;;5.60;99.90;;;;;;5011249;28;20034;-49
2023/04/06 04:14:35;;;;;;;3.85;1.85;;;5.50;99.90;;;;;;5011318;28;20042;-49
2023/04/06 04:17:01;;;;;;;3.38;2.63;;;5.60;99.90;;;;;;5011105;28;20037;-49
2023/04/06 04:19:26;;;;;;;2.25;1.70;;;5.60;99.90;;;;;;5011168;28;20038;-49
2023/04/06 04:21:52;;;;;;;3.03;2.55;;;5.70;99.90;;;;;;5010954;28;20513;-50
2023/04/06 04:24:18;;;;;;;2.75;2.33;;;5.60;99.90;;;;;;5010913;28;20052;-51
2023/04/06 04:26:44;;;;;;;2.45;2.00;;;5.70;99.90;;;;;;5027527;28;20049;-50
2023/04/06 04:29:10;;;;;;;2.58;1.60;;;5.60;99.90;;;;;;5014682;28;20041;-49
2023/04/06 04:31:35;;;;;;;4.25;3.35;;;5.60;99.90;;;;;;5032981;28;20109;-49
2023/04/06 04:34:01;;;;;;;3.35;2.53;;;5.60;99.90;;;;;;5033125;28;20029;-48
2023/04/06 04:36:27;;;;;;;3.03;2.63;;;5.70;99.90;;;;;;5033055;28;20033;-50
2023/04/06 04:38:53;;;;;;;2.90;2.35;;;5.80;99.90;;;;;;5031079;28;20171;-49
2023/04/06 04:41:19;;;;;;;2.85;1.98;;;5.80;99.90;;;;;;5031966;28;20026;-50
2023/04/06 04:43:45;;;;;;;4.63;2.67;;;5.90;99.90;;;;;;5027317;28;20056;-49
2023/04/06 04:46:11;;;;;;;2.75;2.25;;;5.90;99.90;;;;;;5036094;28;20095;-48
2023/04/06 04:48:37;;;;;;;4.03;1.95;;;5.90;99.90;;;;;;5024501;28;20124;-49
2023/04/06 04:51:03;;;;;;;1.58;1.48;;;5.80;99.90;;;;;;5041012;28;20549;-49
2023/04/06 04:53:29;;;;;;;4.00;2.20;;;5.70;99.90;;;;;;5022968;28;20049;-50
2023/04/06 04:55:55;;;;;;;3.33;2.30;;;5.70;99.90;;;;;;5000337;28;20126;-49
2023/04/06 04:58:21;;;;;;;2.70;2.15;;;5.70;99.90;;;;;;5023988;28;20176;-48
2023/04/06 05:00:46;;;;;;;3.80;2.45;;;5.80;99.90;;;;;;5023561;28;20116;-49
2023/04/06 05:03:24;;;;;;;3.53;2.85;;;5.80;99.90;;;;;;5016633;28;20026;-51
2023/04/06 05:05:50;;;;;;;2.80;2.03;;;5.90;99.90;;;;;;5016497;28;20473;-52
2023/04/06 05:08:16;;;;;;;3.80;2.33;;;5.80;99.90;;;;;;5014033;28;20160;-53
2023/04/06 05:10:42;;;;;;;2.13;2.00;;;5.80;99.90;;;;;;5014210;28;20498;-50
2023/04/06 05:13:08;;;;;;;6.97;3.65;;;5.80;99.90;;;;;;5014277;28;20034;-50
2023/04/06 05:15:40;;;;;;;3.78;2.40;;;5.70;99.90;;;;;;5030705;28;20146;-50
2023/04/06 05:18:06;;;;;;;;;;;5.80;99.90;;;;;;5014553;28;20038;-50
2023/04/06 05:20:32;;;;;;;1.00;1.00;;;5.80;99.90;;;;;;5014188;28;19906;-50
2023/04/06 05:22:58;;;;;;;2.75;2.55;;;5.60;99.90;;;;;;5014191;28;20034;-51
2023/04/06 05:25:24;;;;;;;2.97;2.13;;;5.70;99.90;;;;;;5013997;28;20046;-50
2023/04/06 05:27:50;;;;;;;2.47;1.88;;;5.80;99.90;;;;;;5021535;28;20041;-50
2023/04/06 05:30:16;;;;;;;2.38;2.03;;;5.90;99.90;;;;;;5033624;28;20079;-50
2023/04/06 05:32:43;;;;;;;4.63;3.05;;;6.00;99.90;;;;;;5033622;28;20029;-50
2023/04/06 05:35:09;;;;;;;5.93;2.17;;;6.00;99.90;;;;;;5050067;28;20041;-50
2023/04/06 05:37:35;;;;;;;3.33;2.00;;;6.00;99.90;;;;;;5033447;28;20072;-50
2023/04/06 05:40:00;;;;;;;5.00;2.97;;;6.00;99.90;;;;;;5050291;28;20041;-50
2023/04/06 05:42:26;;;;;;;2.50;1.90;;;5.90;99.90;;;;;;5035564;28;20025;-50
2023/04/06 05:44:53;;;;;;;3.70;3.20;;;;;;;;;;5035523;28;20534;-50
2023/04/06 05:47:19;;;;;;;3.22;2.38;;;5.90;99.90;;;;;;5035812;28;20033;-50
2023/04/06 05:49:45;;;;;;;3.33;2.58;;;;;;;;;;5035378;28;20385;-50
2023/04/06 05:52:11;;;;;;;4.55;3.00;;;5.80;99.90;;;;;;5035429;28;20026;-50
2023/04/06 05:54:37;;;;;;;3.22;2.17;;;;;;;;;;5033551;28;20052;-50
2023/04/06 05:57:03;;;;;;;6.57;3.20;;;;;;;;;;5035342;28;20036;-50
2023/04/06 05:59:32;;;;;;;2.55;1.40;;;;;;;;;;5026022;28;20115;-50
2023/04/06 06:02:00;;;;;;;3.33;2.50;;;;;;;;;;5015456;28;20069;-50
2023/04/06 06:04:27;;;;;;;1.20;1.15;;;;;;;;;;5013861;28;20038;-50
2023/04/06 06:06:53;;;;;;;2.70;2.15;;;;;;;;;;5015401;28;20049;-50
2023/04/06 06:09:19;;;;;;;3.20;2.15;;;;;;;;;;5015279;28;20084;-50
2023/04/06 06:11:46;;;;;;;4.85;2.90;;;;;;;;;;5022693;28;20034;-50
2023/04/06 06:14:12;;;;;;;2.28;2.00;;;;;;;;;;5023983;28;20030;-50
2023/04/06 06:16:38;;;;;;;4.20;2.92;;;;;;;;;;5024805;28;20083;-50
2023/04/06 06:19:04;;;;;;;2.17;1.58;;;;;;;;;;5025443;28;20026;-50
2023/04/06 06:21:31;;;;;;;3.65;3.13;;;;;;;;;;5023963;28;20085;-50
2023/04/06 06:23:57;;;;;;;2.10;1.75;;;;;;;;;;5020383;28;20056;-50
2023/04/06 06:26:23;;;;;;;2.08;1.75;;;;;;;;;;5024001;28;20022;-50
2023/04/06 06:28:49;;;;;;;4.43;3.60;;;;;;;;;;5023296;28;20065;-50
2023/04/06 06:31:16;;;;;;;3.25;2.10;;;;;;;;;;5024953;28;20519;-50
2023/04/06 06:33:42;;;;;;;4.50;2.97;;;;;;;;;;5024961;28;20112;-50
2023/04/06 06:36:09;;;;;;;5.05;2.42;;;;;;;;;;5037847;28;20559;-50
2023/04/06 06:38:35;;;;;;;1.35;1.27;;;;;;;;;;5025037;28;20104;-50
2023/04/06 06:41:01;;;;;;;1.45;1.20;;;;;;;;;;5024527;28;20029;-50
2023/04/06 06:43:27;;;;;;;4.38;3.75;;;;;;;;;;5031044;28;20045;-51
2023/04/06 06:45:53;;;;;;;4.55;3.33;;;;;;;;;;5034708;28;20032;-50
2023/04/06 06:48:19;;;;;;;4.95;3.92;;;;;;;;;;5034400;28;20148;-50
2023/04/06 06:50:48;;;;;;;5.03;2.70;;;;;;;;;;5032517;28;20037;-50
2023/04/06 06:53:15;;;;;;;5.93;4.05;;;;;;;;;;5034519;28;20021;-49
2023/04/06 06:55:43;;;;;;;4.57;3.20;;;;;;;;;;5034394;28;20424;-50
2023/04/06 06:58:10;;;;;;;2.10;1.95;;;;;;;;;;5034081;28;20041;-51
2023/04/06 07:00:36;;;;;;;2.15;1.95;;;;;;;;;;5034599;28;20029;-49
2023/04/06 07:03:02;;;;;;;2.45;2.03;;;;;;;;;;5048890;28;20061;-51
2023/04/06 07:05:28;;;;;;;1.50;1.40;;;;;;;;;;5034205;28;20032;-50
2023/04/06 07:07:55;;;;;;;3.63;2.85;;;;;;;;;;5033865;28;20481;-50
2023/04/06 07:10:21;;;;;;;3.38;2.03;;;;;;;;;;5032339;28;20063;-50
2023/04/06 07:12:47;;;;;;;2.00;1.80;;;;;;;;;;5033780;28;20124;-50
2023/04/06 07:15:13;;;;;;;2.70;2.30;;;;;;;;;;5033841;28;20029;-50
2023/04/06 07:17:41;;;;;;;2.97;2.53;;;;;;;;;;5026435;28;20026;-50
2023/04/06 07:20:07;;;;;;;3.40;1.80;;;;;;;;;;5022552;28;20050;-50
2023/04/06 07:22:33;;;;;;;1.92;1.83;;;;;;;;;;5021688;28;20022;-50
2023/04/06 07:24:59;;;;;;;2.30;1.48;;;;;;;;;;5013771;28;20061;-50
2023/04/06 07:27:26;;;;;;;2.13;1.92;;;;;;;;;;5012137;28;20082;-50
2023/04/06 07:29:51;;;;;;;3.67;1.20;;;7.30;99.90;;;;;;4995773;28;20065;-50
2023/04/06 07:32:17;;;;;;;2.42;2.00;;;7.30;99.90;;;;;;5014199;28;20069;-50
2023/04/06 07:34:44;;;;;;;3.33;1.92;;;7.40;99.90;;;;;;5012028;28;20037;-50
2023/04/06 07:37:11;;;;;;;3.25;2.00;;;7.80;99.90;;;;;;5013633;28;20037;-51
2023/04/06 07:39:36;;;;;;;2.25;1.60;;;7.80;99.90;;;;;;4995573;28;20187;-50
2023/04/06 07:42:02;;;;;;;2.33;2.05;;;7.80;99.90;;;;;;5013782;28;20481;-50
2023/04/06 07:44:28;;;;;;;1.30;1.20;;;8.00;99.90;;;;;;5013898;28;20030;-50
2023/04/06 07:46:53;;;;;;;1.10;0.70;;;7.80;99.90;;;;;;5013641;28;20072;-51
2023/04/06 07:49:20;;;;;;;1.10;1.00;;;7.60;99.90;;;;;;5028314;28;20053;-50
2023/04/06 07:51:46;;;;;;;1.08;0.70;;;7.60;99.90;;;;;;5014545;28;20103;-49
2023/04/06 07:54:12;;;;;;;3.22;2.17;;;7.40;99.90;;;;;;5038282;28;20074;-51
2023/04/06 07:56:37;;;;;;;1.48;1.38;;;7.80;99.90;;;;;;5024071;28;20038;-50
2023/04/06 07:59:03;;;;;;;1.33;1.23;;;8.00;99.90;;;;;;5066028;28;20037;-51
2023/04/06 08:01:30;;;;;;;4.25;1.70;;;8.10;99.90;;;;;;5035137;28;20524;-51
2023/04/06 08:03:56;;;;;;;1.88;1.70;;;8.30;99.90;;;;;;5034517;28;20029;-51
2023/04/06 08:06:22;;;;;;;0.77;0.77;;;8.60;99.90;;;;;;5049311;28;20038;-51
2023/04/06 08:08:48;;;;;;;1.33;1.23;;;8.30;99.90;;;;;;5034621;28;20061;-50
2023/04/06 08:11:14;;;;;;;1.75;1.23;;;8.50;99.90;;;;;;5034189;28;20075;-50
2023/04/06 08:13:40;;;;;;;1.73;1.58;;;8.00;99.90;;;;;;5031673;28;20044;-51
2023/04/06 08:16:06;;;;;;;1.55;1.38;;;8.00;99.90;;;;;;5014663;28;20092;-51
2023/04/06 08:18:32;;;;;;;2.88;1.70;;;7.90;99.90;;;;;;5031045;28;20038;-51
2023/04/06 08:20:58;;;;;;;1.70;1.50;;;8.00;99.90;;;;;;5064866;28;20038;-50
2023/04/06 08:23:23;;;;;;;2.42;1.58;;;8.50;99.90;;;;;;5034500;28;20524;-50
2023/04/06 08:25:49;;;;;;;2.50;2.30;;;8.30;99.90;;;;;;5037012;28;20048;-50
2023/04/06 08:28:15;;;;;;;2.03;1.60;;;8.10;99.90;;;;;;5036834;28;20515;-50
2023/04/06 08:30:42;;;;;;;0.85;0.60;;;8.60;99.90;;;;;;5036895;28;20029;-50
2023/04/06 08:33:08;;;;;;;1.02;1.02;;;8.50;99.90;;;;;;5033936;28;20395;-50
2023/04/06 08:35:34;;;;;;;1.90;1.67;;;8.70;99.90;;;;;;5028174;28;20032;-50
2023/04/06 08:38:00;;;;;;;6.47;1.08;;;8.90;99.90;;;;;;5024406;28;20041;-50
2023/04/06 08:40:26;;;;;;;2.72;2.22;;;8.80;99.80;;;;;;5024657;28;20029;-50
2023/04/06 08:42:56;;;;;;;1.92;1.80;;;8.90;99.90;;;;;;5027195;28;20025;-50
2023/04/06 08:45:22;;;;;;;0.95;0.93;;;9.30;99.90;;;;;;5034508;28;20076;-50
2023/04/06 08:47:51;;;;;;;4.07;2.30;;;9.50;99.90;;;;;;5036566;28;20044;-49
2023/04/06 08:50:18;;;;;;;1.40;1.30;;;;;;;;;;5036512;28;20026;-51
2023/04/06 08:52:48;;;;;;;3.03;1.85;;;9.90;99.90;;;;;;5036641;28;20045;-50
2023/04/06 08:55:14;;;;;;;2.72;2.33;;;10.10;99.90;;;;;;5037023;28;20029;-50
2023/04/06 08:57:41;;;;;;;2.92;2.08;;;10.10;99.90;;;;;;5018039;28;20377;-50
2023/04/06 09:00:09;;;;;;;3.05;1.70;;;9.80;99.10;;;;;;5036517;28;20036;-50
2023/04/06 09:02:39;;;;;;;1.70;1.60;;;10.10;99.50;;;;;;5036347;28;20381;-50
2023/04/06 09:05:05;;;;;;;2.10;1.88;;;10.00;99.90;;;;;;5036707;28;20065;-50
2023/04/06 09:07:31;;;;;;;1.92;1.73;;;;;;;;;;5036162;28;20466;-50
2023/04/06 09:09:57;;;;;;;2.85;1.98;;;10.20;99.60;;;;;;5036084;28;20393;-50
2023/04/06 09:12:27;;;;;;;1.60;1.50;;;;;;;;;;5035832;28;20033;-50
2023/04/06 09:14:53;;;;;;;2.67;1.70;;;;;;;;;;5023924;28;20029;-50
2023/04/06 09:17:26;;;;;;;1.50;1.40;;;;;;;;;;5031096;28;20483;-50
2023/04/06 09:19:53;;;;;;;1.38;1.27;;;;;;;;;;5015503;28;20117;-50
2023/04/06 09:22:20;;;;;;;2.95;1.23;;;11.20;99.90;;;;;;5016301;28;20054;-50
2023/04/06 09:24:47;;;;;;;3.55;3.17;;;11.00;98.70;;;;;;5016271;28;20111;-50
2023/04/06 09:27:14;;;;;;;2.75;2.17;;;10.80;97.20;;;;;;5016535;28;20101;-50
2023/04/06 09:29:41;;;;;;;1.52;1.23;;;10.60;96.10;;;;;;5030716;28;20388;-52
2023/04/06 09:32:10;;;;;;;2.38;1.60;;;10.50;96.30;;;;;;5050658;28;20436;-49
2023/04/06 09:34:37;;;;;;;2.72;1.90;;;;;;;;;;5035658;28;20037;-50
2023/04/06 09:37:13;;;;;;;3.30;1.80;;;11.40;96.00;;;;;;5035805;28;20033;-50
2023/04/06 09:39:39;;;;;;;1.35;1.20;;;11.40;96.80;;;;;;5035929;28;20044;-51
2023/04/06 09:42:05;;;;;;;1.67;1.58;;;10.90;97.20;;;;;;5023405;28;20042;-50
2023/04/06 09:44:30;;;;;;;2.05;0.98;;;11.30;96.50;;;;;;5022467;28;20422;-50
2023/04/06 09:46:57;;;;;;;1.25;1.15;;;;;;;;;;5033527;28;20112;-50
2023/04/06 09:49:23;;;;;;;1.27;1.17;;;;;;;;;;5023589;28;20042;-50
2023/04/06 09:51:54;;;;;;;2.00;1.45;;;;;;;;;;5015949;28;20026;-50
2023/04/06 09:54:21;;;;;;;3.22;2.08;;;;;;;;;;5015893;28;20026;-51
2023/04/06 09:56:51;;;;;;;4.05;1.80;;;;;;;;;;5026714;28;20041;-50
2023/04/06 09:59:40;;;;;;;3.78;2.00;;;;;;;;;;5035396;28;20018;-51
2023/04/06 10:02:09;;;;;;;2.33;1.90;;;;;;;;;;5033312;28;20076;-51
2023/04/06 10:04:47;;;;;;;2.10;1.70;;;11.70;97.40;;;;;;5026298;28;20092;-51
2023/04/06 10:07:13;;;;;;;0.82;0.82;;;11.70;97.00;;;;;;5013326;28;20034;-50
2023/04/06 10:09:39;;;;;;;0.52;0.52;;;11.70;96.00;;;;;;5013287;28;20053;-50
2023/04/06 10:12:07;;;;;;;1.42;1.27;;;11.90;95.70;;;;;;4996888;28;20038;-50
2023/04/06 10:14:37;;;;;;;2.50;1.75;;;;;;;;;;5025753;28;20040;-50
2023/04/06 10:17:05;;;;;;;1.70;1.00;;;12.60;93.50;;;;;;5032799;28;20029;-50
2023/04/06 10:19:57;;;;;;;3.65;1.73;;;12.20;94.30;;;;;;5033179;28;20044;-50
2023/04/06 10:22:31;;;;;;;1.57;1.47;;;11.80;94.50;;;;;;5033053;28;20473;-50
2023/04/06 10:24:57;;;;;;;2.25;2.05;;;11.70;94.50;;;;;;5032532;28;20299;-51
2023/04/06 10:27:32;;;;;;;1.45;1.35;;;11.80;94.60;;;;;;5032912;28;20038;-50
2023/04/06 10:30:03;;;;;;;2.95;1.60;;;11.70;94.50;;;;;;5032673;28;20037;-51
2023/04/06 10:32:36;;;;;;;0.63;0.63;;;12.00;94.20;;;;;;5032878;28;20064;-50
2023/04/06 10:35:05;;;;;;;;;;;12.00;94.80;;;;;;5032859;28;20125;-50
2023/04/06 10:37:52;;;;;;;5.45;2.08;;;12.30;94.40;;;;;;5032588;28;20319;-51
2023/04/06 10:40:25;;;;;;;1.75;1.65;;;12.90;94.80;;;;;;5034640;28;20058;-49
2023/04/06 10:42:55;;;;;;;1.40;1.30;;;13.10;94.10;;;;;;5034455;28;20028;-50
2023/04/06 10:45:23;;;;;;;3.10;1.55;;;12.60;91.80;;;;;;5034498;28;20033;-50
2023/04/06 10:47:49;;;;;;;1.98;1.40;;;12.70;92.20;;;;;;5032132;28;20393;-50
2023/04/06 10:50:16;;;;;;;1.23;1.13;;;12.60;90.90;;;;;;5034684;28;20043;-50
2023/04/06 10:52:45;;;;;;;2.95;1.77;;;13.20;91.70;;;;;;5034360;28;20021;-51
2023/04/06 10:55:15;;;;;;;0.90;0.90;;;12.60;91.70;;;;;;5034328;28;20029;-50
2023/04/06 10:57:41;;;;;;;1.77;1.38;;;13.00;91.70;;;;;;5046905;28;20056;-50
2023/04/06 11:00:08;;;;;;;1.98;1.85;;;;;;;;;;5049032;28;20045;-50
2023/04/06 11:02:36;;;;;;;2.03;1.83;;;12.60;94.90;;;;;;5034322;28;20021;-51
2023/04/06 11:05:02;;;;;;;1.95;1.65;;;12.70;95.40;;;;;;5034278;28;20030;-50
2023/04/06 11:07:29;;;;;;;2.30;1.60;;;12.70;96.10;;;;;;5034424;28;20546;-49
2023/04/06 11:09:56;;;;;;;3.42;1.92;;;12.10;97.50;;;;;;5015899;28;20049;-50
2023/04/06 11:12:27;;;;;;;1.08;1.02;;;12.30;98.30;;;;;;5033954;28;20497;-51
2023/04/06 11:15:03;;;;;;;3.20;1.55;;;11.50;99.90;;;;;;5034047;28;20500;-49
2023/04/06 11:17:30;;;;;;;1.25;1.20;;;11.40;91.70;;;;;;5034240;28;20036;-50
2023/04/06 11:19:57;;;;;;;2.78;2.00;;;11.40;91.00;;;;;;5034081;28;20034;-50
2023/04/06 11:22:24;;;;;;;1.75;1.60;;;;;;;;;;5033924;28;20447;-50
2023/04/06 11:24:50;;;;;;;3.47;1.85;;;11.00;99.90;;;;;;5031484;28;20041;-50
2023/04/06 11:27:16;;;;;;;1.23;1.10;;;11.20;91.60;;;;;;5034275;28;20036;-50
2023/04/06 11:29:43;;;;;;;1.60;1.50;;;11.10;91.70;;;;;;5033964;28;20034;-51
2023/04/06 11:32:09;;;;;;;1.35;1.25;;;11.40;90.50;;;;;;5033821;28;20021;-51
2023/04/06 11:34:40;;;;;;;1.63;0.68;;;11.80;91.30;;;;;;5033821;28;20417;-50
2023/04/06 11:37:10;;;;;;;1.83;1.70;;;;;;;;;;5033604;28;20180;-51
2023/04/06 11:39:50;;;;;;;2.15;1.60;;;12.80;90.70;;;;;;5031831;28;20052;-50
2023/04/06 11:42:26;;;;;;;1.58;1.15;;;13.10;90.40;;;;;;5033624;28;20033;-51
2023/04/06 11:44:55;;;;;;;2.13;1.92;;;13.60;88.60;;;;;;5033319;28;20040;-51
2023/04/06 11:47:32;;;;;;;2.22;1.60;;;13.50;90.80;;;;;;5033554;28;20056;-50
2023/04/06 11:50:06;;;;;;;1.23;1.15;;;13.60;91.30;;;;;;5033633;28;20030;-50
2023/04/06 11:52:32;;;;;;;2.42;2.03;;;13.20;91.20;;;;;;5033765;28;20539;-51
2023/04/06 11:54:58;;;;;;;1.50;1.10;;;13.50;91.70;;;;;;5014822;28;20117;-50
2023/04/06 11:57:25;;;;;;;1.38;1.15;;;12.70;90.00;;;;;;5047761;28;20389;-51
2023/04/06 11:59:51;;;;;;;3.25;2.13;;;12.90;89.10;;;;;;5033357;28;20029;-50
2023/04/06 12:02:17;;;;;;;1.23;1.10;;;12.60;90.60;;;;;;5048172;28;20037;-51
2023/04/06 12:04:44;;;;;;;5.93;2.83;;;12.70;89.80;;;;;;5033210;28;20500;-50
2023/04/06 12:07:10;;;;;;;1.70;1.60;;;;;;;;;;5033050;28;20049;-51
2023/04/06 12:09:36;;;;;;;0.63;0.63;;;;;;;;;;5033237;28;20061;-51
2023/04/06 12:12:03;;;;;;;1.95;1.75;;;13.80;99.90;;;;;;5033336;28;20064;-50
2023/04/06 12:14:30;;;;;;;2.75;2.25;;;13.70;91.20;;;;;;5033195;28;20072;-50
2023/04/06 12:16:57;;;;;;;2.30;1.83;;;13.40;90.80;;;;;;5032971;28;20038;-52
2023/04/06 12:19:25;;;;;;;1.67;1.58;;;13.10;89.90;;;;;;5033374;28;20053;-50
2023/04/06 12:21:54;;;;;;;2.20;1.70;;;13.70;90.50;;;;;;5033130;28;20033;-50
2023/04/06 12:24:20;;;;;;;2.42;1.95;;;14.00;87.00;;;;;;5032975;28;20120;-50
2023/04/06 12:26:46;;;;;;;0.70;0.70;;;14.10;87.90;;;;;;5033025;28;20492;-50
2023/04/06 12:29:13;;;;;;;1.50;1.40;;;14.20;87.80;;;;;;5032831;28;20068;-50
2023/04/06 12:31:40;;;;;;;2.25;1.92;;;14.30;87.00;;;;;;5033024;28;20033;-50
2023/04/06 12:34:07;;;;;;;2.20;1.63;;;13.60;89.00;;;;;;5033107;28;20030;-50
2023/04/06 12:36:33;;;;;;;3.63;2.22;;;13.30;87.80;;;;;;5031185;28;20037;-50
2023/04/06 12:39:00;;;;;;;1.73;1.63;;;12.90;89.50;;;;;;5033155;28;20026;-50
2023/04/06 12:41:26;;;;;;;9.25;5.35;;;12.10;99.90;;;;;;5032842;28;20389;-50
2023/04/06 12:43:52;;;;;;;2.30;1.88;;;12.00;88.60;;;;;;5033145;28;20025;-50
2023/04/06 12:46:18;;;;;;;3.33;1.85;;;12.40;88.50;;;;;;5030974;28;20044;-51
2023/04/06 12:48:43;;;;;;;4.85;2.35;;;13.00;89.60;;;;;;5047413;28;20057;-50
2023/04/06 12:51:09;;;;;;;1.88;1.25;;;13.70;88.20;;;;;;5032590;28;20025;-50
2023/04/06 12:53:35;;;;;;;3.08;1.65;;;13.30;89.70;;;;;;5031836;28;20029;-50
2023/04/06 12:56:02;;;;;;;1.17;0.93;;;12.90;90.10;;;;;;5031716;28;20026;-50
2023/04/06 12:58:29;;;;;;;7.00;3.50;;;12.70;90.00;;;;;;5031605;28;20500;-50
2023/04/06 13:00:57;;;;;;;2.28;1.23;;;12.60;87.10;;;;;;5031600;28;20091;-50
2023/04/06 13:03:23;;;;;;;3.08;1.98;;;12.00;87.90;;;;;;5031562;28;20026;-49
2023/04/06 13:05:50;;;;;;;0.75;0.63;;;11.80;90.80;;;;;;5029475;28;20073;-49
2023/04/06 13:08:16;;;;;;;1.55;1.15;;;;;;;;;;5031420;28;20099;-49
2023/04/06 13:10:53;;;;;;;4.15;2.40;;;11.40;91.00;;;;;;5032467;28;20049;-50
2023/04/06 13:13:26;;;;;;;7.97;5.22;;;11.30;91.10;;;;;;5035139;28;20025;-51
2023/04/06 13:15:53;;;;;;;1.10;0.68;;;11.20;91.30;;;;;;5049722;28;20041;-50
2023/04/06 13:18:19;;;;;;;1.55;1.40;;;11.00;91.20;;;;;;5035074;28;20111;-51
2023/04/06 13:20:47;;;;;;;4.85;3.03;;;10.70;90.70;;;;;;5034891;28;20021;-50
2023/04/06 13:23:13;;;;;;;2.20;2.00;;;11.00;92.00;;;;;;5034686;28;20041;-50
2023/04/06 13:25:39;;;;;;;1.17;1.00;;;;;;;;;;5034977;28;20025;-50
2023/04/06 13:28:05;;;;;;;4.00;2.10;;;10.90;90.60;;;;;;4999922;28;20049;-50